Stations météo

réclame
Mon MeteoGroup
Gemini, Pays-Bas (6214): Température de l'air & dewpoint: 12.06.2018 13:00:00 - 18.06.2018 13:00:00 (CEST)Gemini, Pays-Bas (6214): Vitesse du vent & gusts: 12.06.2018 13:00:00 - 18.06.2018 13:00:00 (CEST)Gemini, Pays-Bas (6214): Direction du vent: 12.06.2018 13:00:00 - 18.06.2018 13:00:00 (CEST)Gemini, Pays-Bas (6214): reduced air pressure: 12.06.2018 13:00:00 - 18.06.2018 13:00:00 (CEST)
Date & Time tt [°C] td [°C] ff [km/h] ff [knt] fx [km/h] fx [knt] dd ppp [hPa]
18.06.2018 13:00:00 15,2 14,0 26 14 32 18 W 1016,5
18.06.2018 12:00:00 15,1 14,1 21 11 36 19 WSW 1016,3
18.06.2018 11:00:00 15,0 14,1 28 15 36 19 WSW 1016,3
18.06.2018 10:00:00 14,6 14,2 29 16 40 21 SW 1016,0
18.06.2018 09:00:00 14,7 13,9 24 13 32 18 SW 1015,7
18.06.2018 08:00:00 15,0 13,5 26 14 32 18 SW 1015,8
18.06.2018 07:00:00 14,9 13,4 24 13 32 18 SW 1015,7
18.06.2018 06:00:00 15,0 13,3 28 15 36 19 SW 1015,9
18.06.2018 05:00:00 15,2 13,0 28 15 32 18 SW 1016,1
18.06.2018 04:00:00 15,3 12,9 26 14 29 16 SW 1015,9
18.06.2018 03:00:00 15,2 13,1 24 13 29 16 SW 1016,2
18.06.2018 02:00:00 15,0 12,6 21 11 29 16 SW 1016,4
18.06.2018 01:00:00 14,7 12,7 24 13 29 16 SW 1016,9
18.06.2018 00:00:00 14,6 12,2 22 12 29 16 SW 1017,0
17.06.2018 23:00:00 14,6 12,2 24 13 29 16 SW 1016,8
17.06.2018 22:00:00 14,5 12,1 18 10 29 16 WSW 1016,9
17.06.2018 21:00:00 14,5 11,5 16 9 29 16 WSW 1016,6
17.06.2018 20:00:00 14,5 11,6 18 10 29 16 W 1016,5
17.06.2018 19:00:00 14,3 11,7 21 11 29 16 W 1016,3
17.06.2018 18:00:00 14,5 11,8 16 9 29 16 WSW 1016,2
17.06.2018 17:00:00 14,5 11,9 21 11 32 18 WSW 1016,1
17.06.2018 16:00:00 14,5 11,6 16 9 29 16 WSW 1015,7
17.06.2018 15:00:00 14,8 11,9 18 10 29 16 WSW 1015,5
17.06.2018 14:00:00 14,9 11,8 13 7 25 14 WSW 1015,1
17.06.2018 13:00:00 15,2 11,4 22 12 25 14 W 1014,5
17.06.2018 12:00:00 15,4 11,4 18 10 32 18 W 1014,0
17.06.2018 11:00:00 15,3 11,0 21 11 29 16 W 1013,8
17.06.2018 10:00:00 15,4 11,1 16 9 25 14 W 1013,3
17.06.2018 09:00:00 15,3 10,5 24 13 29 16 W 1012,7
17.06.2018 08:00:00 15,0 11,1 16 9 25 14 W 1011,9
17.06.2018 07:00:00 14,7 12,0 24 13 32 18 W 1011,7
17.06.2018 06:00:00 14,7 13,1 31 17 43 23 WSW 1011,7
17.06.2018 05:00:00 15,0 13,0 41 22 43 23 SW 1012,0
17.06.2018 04:00:00 15,1 13,0 31 17 36 19 SW 1012,0
17.06.2018 03:00:00 15,3 12,6 26 14 36 19 SW 1012,1
17.06.2018 02:00:00 15,0 12,8 28 15 32 18 SW 1012,3
17.06.2018 01:00:00 15,1 11,6 24 13 29 16 SW 1012,7
17.06.2018 00:00:00 14,8 12,2 18 10 29 16 WSW 1013,0
16.06.2018 23:00:00 15,0 12,4 18 10 25 14 SW 1013,2
16.06.2018 22:00:00 14,6 13,1 13 7 18 10 SW 1013,0
16.06.2018 21:00:00 15,0 13,6 13 7 18 10 WSW 1012,8
16.06.2018 20:00:00 15,2 13,1 13 7 18 10 W 1012,9
16.06.2018 19:00:00 15,5 13,1 13 7 18 10 W 1013,2
16.06.2018 18:00:00 15,7 13,1 16 9 22 12 W 1013,2
16.06.2018 17:00:00 15,8 13,1 15 8 22 12 W 1013,1
16.06.2018 16:00:00 15,5 12,7 16 9 22 12 W 1013,3
16.06.2018 15:00:00 15,5 12,0 13 7 22 12 WSW 1013,7
16.06.2018 14:00:00 15,3 14,3 16 9 22 12 SW 1013,8
16.06.2018 13:00:00 16,7 11,3 15 8 18 10 SW 1013,8
16.06.2018 12:00:00 15,5 13,8 8 4 11 6 S 1013,9
16.06.2018 11:00:00 15,7 12,9 9 5 11 6 S 1013,8
16.06.2018 10:00:00 15,8 12,8 5 3 7 4 SE 1013,9
16.06.2018 09:00:00 15,7 12,4 4 2 11 6 - 1014,2
16.06.2018 08:00:00 15,6 13,0 11 6 18 10 ESE 1014,0
16.06.2018 07:00:00 15,4 12,9 18 10 22 12 E 1014,1
16.06.2018 06:00:00 15,7 11,5 14 8 22 12 E 1014,4
16.06.2018 05:00:00 15,9 11,6 11 6 18 10 E 1015,0
16.06.2018 04:00:00 15,8 11,3 11 6 14 8 E 1015,4
16.06.2018 03:00:00 16,1 9,4 11 6 18 10 ESE 1015,5
16.06.2018 02:00:00 16,0 9,0 11 6 14 8 ESE 1016,0
16.06.2018 01:00:00 15,9 10,8 11 6 14 8 SE 1016,2
16.06.2018 00:00:00 15,8 10,0 9 5 14 8 SE 1016,4
15.06.2018 23:00:00 15,6 11,2 9 5 11 6 ESE 1016,5
15.06.2018 22:00:00 15,8 12,8 4 2 7 4 - 1016,7
15.06.2018 21:00:00 16,3 12,1 2 1 4 2 - 1016,9
15.06.2018 20:00:00 16,5 11,3 4 2 7 4 - 1016,8
15.06.2018 19:00:00 16,5 11,4 4 2 7 4 - 1016,9
15.06.2018 18:00:00 16,5 11,9 4 2 7 4 - 1016,9
15.06.2018 17:00:00 16,3 11,7 5 3 11 6 SSE 1017,0
15.06.2018 16:00:00 16,2 11,0 8 4 11 6 SSE 1017,1
15.06.2018 15:00:00 16,2 11,9 4 2 7 4 S 1017,4
15.06.2018 14:00:00 16,2 12,1 5 3 11 6 SSW 1017,2
15.06.2018 13:00:00 15,8 10,3 11 6 14 8 SSW 1017,3
15.06.2018 12:00:00 15,2 10,6 13 7 18 10 SW 1017,2
15.06.2018 11:00:00 14,9 10,7 11 6 14 8 SW 1016,9
15.06.2018 10:00:00 14,6 11,6 11 6 14 8 WSW 1016,8
15.06.2018 09:00:00 14,8 11,4 9 5 18 10 WSW 1016,4
15.06.2018 08:00:00 14,8 11,7 13 7 22 12 WSW 1015,9
15.06.2018 07:00:00 14,5 11,4 16 9 22 12 WSW 1015,6
15.06.2018 06:00:00 14,4 11,4 13 7 22 12 WSW 1015,3
15.06.2018 05:00:00 14,4 11,3 11 6 14 8 WSW 1015,1
15.06.2018 04:00:00 14,3 11,3 13 7 18 10 WSW 1014,9
15.06.2018 03:00:00 14,2 11,7 9 5 18 10 WSW 1014,9
15.06.2018 02:00:00 14,3 12,5 13 7 18 10 WSW 1014,9
15.06.2018 01:00:00 14,6 11,6 11 6 18 10 W 1014,8
15.06.2018 00:00:00 15,0 10,4 16 9 22 12 W 1014,6
14.06.2018 23:00:00 15,2 9,6 18 10 22 12 WNW 1013,9
14.06.2018 22:00:00 15,2 11,8 22 12 32 18 W 1013,4
14.06.2018 21:00:00 15,1 12,5 29 16 36 19 W 1012,6
14.06.2018 20:00:00 14,8 13,1 28 15 36 19 W 1011,7
14.06.2018 19:00:00 14,8 13,3 37 20 47 25 WSW 1011,5
14.06.2018 18:00:00 14,8 13,3 52 28 58 31 WSW 1011,6
14.06.2018 17:00:00 14,3 13,5 55 30 61 33 SW 1011,2
14.06.2018 16:00:00 14,1 13,1 63 34 76 41 SW 1011,3
14.06.2018 15:00:00 16,7 12,1 42 23 50 27 SW 1010,3
14.06.2018 14:00:00 16,4 11,9 57 31 65 35 SSW 1009,8
14.06.2018 13:00:00 16,5 11,5 54 29 61 33 SW 1009,9
14.06.2018 12:00:00 16,6 10,9 54 29 58 31 SW 1010,5
14.06.2018 11:00:00 16,3 11,4 50 27 54 29 SW 1010,5
14.06.2018 10:00:00 15,8 11,7 46 25 47 25 SW 1010,7
14.06.2018 09:00:00 15,1 11,8 46 25 47 25 SSW 1010,7
14.06.2018 08:00:00 14,9 11,6 42 23 50 27 SSW 1011,1
14.06.2018 07:00:00 15,1 11,3 44 24 50 27 SW 1011,5
14.06.2018 06:00:00 15,2 11,7 39 21 43 23 SW 1012,0
14.06.2018 05:00:00 15,3 11,5 37 20 43 23 SW 1012,4
14.06.2018 04:00:00 15,5 10,8 42 23 47 25 SW 1012,7
14.06.2018 03:00:00 15,2 10,6 34 18 40 21 SW 1013,4
14.06.2018 02:00:00 15,0 10,3 31 17 40 21 SW 1013,9
14.06.2018 01:00:00 14,8 10,2 29 16 36 19 WSW 1014,7
14.06.2018 00:00:00 14,6 10,1 16 9 25 14 WSW 1014,9
13.06.2018 23:00:00 14,4 10,1 18 10 29 16 WSW 1015,0
13.06.2018 22:00:00 14,5 9,4 15 8 25 14 WSW 1015,0
13.06.2018 21:00:00 14,3 9,9 22 12 25 14 W 1015,3
13.06.2018 20:00:00 14,6 9,0 21 11 25 14 W 1015,3
13.06.2018 19:00:00 14,8 8,9 18 10 25 14 W 1015,5
13.06.2018 18:00:00 14,6 9,5 18 10 25 14 WNW 1015,7
13.06.2018 17:00:00 14,5 8,9 26 14 25 14 NW 1015,8
13.06.2018 16:00:00 14,1 9,0 24 13 29 16 NW 1015,8
13.06.2018 15:00:00 14,0 7,8 26 14 29 16 NW 1015,8
13.06.2018 14:00:00 13,9 8,1 22 12 29 16 NNW 1015,8
13.06.2018 13:00:00 13,5 6,3 24 13 32 18 NNW 1016,0
13.06.2018 12:00:00 13,5 6,0 21 11 32 18 NNW 1015,7
13.06.2018 11:00:00 13,6 7,0 24 13 32 18 NNW 1015,4
13.06.2018 10:00:00 13,3 6,6 22 12 29 16 NNW 1015,3
13.06.2018 09:00:00 13,1 5,1 31 17 40 21 N 1014,8
13.06.2018 08:00:00 13,1 5,8 28 15 36 19 N 1014,8
13.06.2018 07:00:00 13,2 6,0 34 18 40 21 N 1014,5
13.06.2018 06:00:00 13,4 6,6 37 20 40 21 N 1014,4
13.06.2018 05:00:00 13,6 6,4 37 20 43 23 N 1014,4
13.06.2018 04:00:00 13,3 8,5 37 20 43 23 N 1014,5
13.06.2018 03:00:00 13,9 9,1 35 19 40 21 N 1014,5
13.06.2018 02:00:00 14,0 9,8 35 19 36 19 N 1014,3
13.06.2018 01:00:00 13,8 10,2 28 15 36 19 N 1014,6
13.06.2018 00:00:00 14,0 8,4 39 21 43 23 N 1014,5
12.06.2018 23:00:00 14,1 9,3 35 19 40 21 N 1014,3
12.06.2018 22:00:00 14,1 8,9 34 18 36 19 N 1014,0
12.06.2018 21:00:00 14,1 9,0 31 17 36 19 N 1013,8
12.06.2018 20:00:00 14,1 9,6 34 18 36 19 N 1013,7
12.06.2018 19:00:00 13,7 9,3 31 17 40 21 N 1013,7
12.06.2018 18:00:00 13,3 10,7 31 17 36 19 N 1013,7
12.06.2018 17:00:00 14,0 10,4 21 11 32 18 NNW 1013,8
12.06.2018 16:00:00 14,0 10,0 21 11 25 14 N 1013,9
12.06.2018 15:00:00 14,1 9,7 21 11 29 16 NNW 1014,0
12.06.2018 14:00:00 14,1 9,6 18 10 25 14 NNW 1014,0
12.06.2018 13:00:00 14,0 8,0 22 12 32 18 NNW 1013,8

tt = Température de l'air
td = dewpoint
ff = Vitesse du vent
fx = gusts
dd = Direction du vent
ppp = reduced air pressure

stations d'obs. à proximité